Time;durP1;ratioP1;P1;durP2;ratioP2;P2;SDS_P1;SDS_P2;PMS_P1;PMS_P2;Temp;Humidity;BMP_temperature;BMP_pressure;BME280_temperature;BME280_humidity;BME280_pressure;Samples;Min_cycle;Max_cycle;Signal;HPM_P1;HPM_P2
2022/08/23 00:01:27;;;;;;;45.42;43.00;;;23.70;76.10;;;;;;5049457;28;20036;-77
2022/08/23 00:03:54;;;;;;;46.20;43.75;;;23.70;76.20;;;;;;5049117;28;20036;-77
2022/08/23 00:06:21;;;;;;;45.63;43.15;;;23.70;76.10;;;;;;5033201;28;20512;-77
2022/08/23 00:08:48;;;;;;;46.75;44.40;;;23.60;76.30;;;;;;5033070;28;20041;-77
2022/08/23 00:11:33;;;;;;;45.22;42.90;;;23.60;76.70;;;;;;5032893;28;20033;-77
2022/08/23 00:14:06;;;;;;;44.88;42.63;;;23.50;77.10;;;;;;5051121;28;20036;-77
2022/08/23 00:16:32;;;;;;;42.33;40.22;;;23.40;77.30;;;;;;5049358;28;20429;-77
2022/08/23 00:18:58;;;;;;;39.22;37.28;;;23.30;77.60;;;;;;5033088;28;20033;-77
2022/08/23 00:21:24;;;;;;;41.08;39.08;;;23.30;77.80;;;;;;5032957;28;20124;-77
2022/08/23 00:23:50;;;;;;;45.67;43.33;;;23.30;77.70;;;;;;5032643;28;20037;-77
2022/08/23 00:26:19;;;;;;;45.05;42.80;;;23.40;77.50;;;;;;5032750;28;20045;-77
2022/08/23 00:28:46;;;;;;;43.13;40.95;;;23.40;77.50;;;;;;5033382;28;20033;-77
2022/08/23 00:31:12;;;;;;;42.75;40.70;;;23.30;77.50;;;;;;5048630;28;20036;-77
2022/08/23 00:33:38;;;;;;;42.17;39.97;;;23.30;77.60;;;;;;5032950;28;20033;-77
2022/08/23 00:36:04;;;;;;;45.60;43.33;;;23.40;77.30;;;;;;5049593;28;20077;-77
2022/08/23 00:38:30;;;;;;;42.70;40.58;;;23.40;76.90;;;;;;5050415;28;20040;-77
2022/08/23 00:40:56;;;;;;;43.45;41.35;;;23.50;76.50;;;;;;5049384;28;20032;-77
2022/08/23 00:49:38;;;;;;;40.38;38.40;;;23.70;75.70;;;;;;5021280;28;20044;-77
2022/08/23 00:52:07;;;;;;;41.92;39.88;;;23.70;75.40;;;;;;4995316;28;20470;-77
2022/08/23 00:54:34;;;;;;;41.97;39.97;;;23.70;75.50;;;;;;5012171;28;20038;-77
2022/08/23 00:57:03;;;;;;;40.17;38.28;;;23.60;75.70;;;;;;5011957;28;20056;-77
2022/08/23 00:59:29;;;;;;;37.53;35.67;;;23.60;75.80;;;;;;5012117;28;20034;-77
2022/08/23 01:01:56;;;;;;;41.22;39.30;;;23.60;76.00;;;;;;5011512;28;20037;-77
2022/08/23 01:04:22;;;;;;;40.38;38.38;;;23.50;75.90;;;;;;4995472;28;20060;-77
2022/08/23 01:06:54;;;;;;;37.03;35.25;;;23.50;75.80;;;;;;5011513;28;20053;-77
2022/08/23 01:09:21;;;;;;;37.25;35.35;;;23.60;75.60;;;;;;5028281;28;20033;-77
2022/08/23 01:12:03;;;;;;;41.65;39.45;;;23.60;75.80;;;;;;5011661;28;20136;-77
2022/08/23 01:14:37;;;;;;;41.78;39.63;;;23.60;75.90;;;;;;5011913;28;20088;-77
2022/08/23 01:17:32;;;;;;;40.70;38.72;;;23.60;75.70;;;;;;5014565;28;20041;-77
2022/08/23 01:20:05;;;;;;;37.50;35.47;;;23.60;75.70;;;;;;5038324;28;20056;-78
2022/08/23 01:22:53;;;;;;;35.97;34.15;;;23.60;75.70;;;;;;5037253;28;20025;-77
2022/08/23 01:25:21;;;;;;;38.13;36.13;;;23.50;75.90;;;;;;5052664;28;20041;-77
2022/08/23 01:27:47;;;;;;;38.42;36.58;;;23.60;75.90;;;;;;5036300;28;20037;-77
2022/08/23 01:30:15;;;;;;;38.83;36.80;;;23.50;76.10;;;;;;5035768;28;20025;-77
2022/08/23 01:32:50;;;;;;;37.55;35.70;;;23.50;76.00;;;;;;5052769;28;20028;-77
2022/08/23 01:35:18;;;;;;;37.55;35.67;;;23.60;75.90;;;;;;5035255;28;20056;-77
2022/08/23 01:37:44;;;;;;;38.40;36.50;;;23.50;76.00;;;;;;5036288;28;20032;-77
2022/08/23 01:40:10;;;;;;;38.70;36.85;;;23.50;76.50;;;;;;5019217;28;20048;-77
2022/08/23 01:42:40;;;;;;;38.80;36.92;;;23.50;76.30;;;;;;5052423;28;20466;-77
2022/08/23 01:45:11;;;;;;;40.58;38.63;;;23.40;76.30;;;;;;5024588;28;20033;-78
2022/08/23 01:47:37;;;;;;;;;;;23.40;76.30;;;;;;5039057;28;20390;-77
2022/08/23 01:50:03;;;;;;;34.42;32.75;;;23.40;76.40;;;;;;5052055;28;19999;-77
2022/08/23 01:52:29;;;;;;;37.50;35.67;;;23.40;76.30;;;;;;5035710;28;20036;-77
2022/08/23 01:54:56;;;;;;;38.00;36.00;;;23.40;76.60;;;;;;5035924;28;20029;-77
2022/08/23 01:57:22;;;;;;;37.63;35.70;;;23.30;77.30;;;;;;5035891;28;20033;-77
2022/08/23 01:59:49;;;;;;;37.33;35.42;;;23.20;77.70;;;;;;5052026;28;20020;-77
2022/08/23 02:02:15;;;;;;;37.67;35.72;;;23.20;77.50;;;;;;5035266;28;20033;-77
2022/08/23 02:04:41;;;;;;;35.42;33.63;;;23.20;77.70;;;;;;5051670;28;20473;-77
2022/08/23 02:07:07;;;;;;;36.53;34.65;;;23.20;77.70;;;;;;5052102;28;20033;-77
2022/08/23 02:09:33;;;;;;;35.95;34.15;;;23.30;77.40;;;;;;5053272;28;20465;-77
2022/08/23 02:11:59;;;;;;;35.60;33.80;;;23.20;77.60;;;;;;5052044;28;20039;-77
2022/08/23 02:14:25;;;;;;;38.55;36.25;;;23.10;77.70;;;;;;5053264;28;20485;-77
2022/08/23 02:16:52;;;;;;;38.42;36.45;;;23.20;77.60;;;;;;5052697;28;20044;-77
2022/08/23 02:19:19;;;;;;;36.15;34.25;;;23.20;77.40;;;;;;5053186;28;20029;-77
2022/08/23 02:21:45;;;;;;;36.80;34.97;;;23.20;77.60;;;;;;5053037;28;20025;-77
2022/08/23 02:24:17;;;;;;;37.42;35.53;;;23.20;77.40;;;;;;5051988;28;20029;-77
2022/08/23 02:26:46;;;;;;;36.95;35.10;;;23.30;77.20;;;;;;5051170;28;20040;-77
2022/08/23 02:29:13;;;;;;;38.03;35.92;;;23.30;77.40;;;;;;5051443;28;20021;-77
2022/08/23 02:31:39;;;;;;;37.00;35.10;;;23.30;77.30;;;;;;5051145;28;20402;-77
2022/08/23 02:34:05;;;;;;;39.28;37.28;;;23.20;77.40;;;;;;5051370;28;20029;-77
2022/08/23 02:36:32;;;;;;;36.58;34.58;;;23.20;77.80;;;;;;5005202;28;20046;-77
2022/08/23 02:38:58;;;;;;;37.05;35.15;;;23.20;77.60;;;;;;4996425;28;20385;-77
2022/08/23 02:41:24;;;;;;;38.40;36.50;;;23.20;77.80;;;;;;5048016;28;20030;-77
2022/08/23 02:43:51;;;;;;;37.95;36.05;;;23.10;78.20;;;;;;5029826;28;20026;-77
2022/08/23 02:46:18;;;;;;;40.33;38.20;;;23.10;78.10;;;;;;5041079;28;20037;-77
2022/08/23 02:48:44;;;;;;;38.85;36.75;;;23.10;78.10;;;;;;5051268;28;20032;-77
2022/08/23 02:51:10;;;;;;;37.42;35.53;;;23.10;78.00;;;;;;5051069;28;20199;-77
2022/08/23 02:53:37;;;;;;;39.28;37.15;;;23.10;78.00;;;;;;5051230;28;20361;-77
2022/08/23 02:56:03;;;;;;;37.25;35.35;;;23.00;78.20;;;;;;5051224;28;20378;-77
2022/08/23 02:58:29;;;;;;;36.25;34.38;;;23.10;78.30;;;;;;5051204;28;20021;-77
2022/08/23 03:00:55;;;;;;;37.17;35.13;;;23.00;78.40;;;;;;5050541;28;20032;-77
2022/08/23 03:03:21;;;;;;;36.75;34.85;;;23.00;78.20;;;;;;5050622;28;20457;-77
2022/08/23 03:05:47;;;;;;;33.67;31.85;;;23.00;78.60;;;;;;5034230;28;20044;-77
2022/08/23 03:08:14;;;;;;;38.38;36.38;;;23.00;79.40;;;;;;5051057;28;20040;-77
2022/08/23 03:10:45;;;;;;;38.05;36.15;;;23.10;78.40;;;;;;5034140;28;20033;-77
2022/08/23 03:13:11;;;;;;;36.97;35.17;;;23.10;78.10;;;;;;5034051;28;20049;-77
2022/08/23 03:15:38;;;;;;;36.33;34.35;;;23.10;77.90;;;;;;5050161;28;20036;-77
2022/08/23 03:18:04;;;;;;;35.72;33.83;;;23.10;77.90;;;;;;5050454;28;20029;-77
2022/08/23 03:20:30;;;;;;;35.40;33.58;;;23.10;78.20;;;;;;5050656;28;20037;-77
2022/08/23 03:22:56;;;;;;;37.28;35.35;;;23.00;78.10;;;;;;5050583;28;20386;-77
2022/08/23 03:25:22;;;;;;;39.08;37.08;;;23.00;78.50;;;;;;5050244;28;20045;-77
2022/08/23 03:27:49;;;;;;;32.30;30.60;;;22.90;79.20;;;;;;5049988;28;20040;-77
2022/08/23 03:30:15;;;;;;;31.75;30.05;;;22.80;79.50;;;;;;5049953;28;20025;-77
2022/08/23 03:32:41;;;;;;;31.88;30.23;;;22.90;79.10;;;;;;5050293;28;20041;-77
2022/08/23 03:35:08;;;;;;;33.95;32.17;;;22.90;79.00;;;;;;5030207;28;20044;-77
2022/08/23 03:37:34;;;;;;;32.38;30.77;;;22.90;79.20;;;;;;5014652;28;20060;-77
2022/08/23 03:40:00;;;;;;;32.38;30.77;;;22.90;79.00;;;;;;5039536;28;20025;-77
2022/08/23 03:42:26;;;;;;;32.40;30.50;;;22.90;79.00;;;;;;5051596;28;20033;-77
2022/08/23 03:44:52;;;;;;;32.83;31.13;;;22.90;79.10;;;;;;5040207;28;20029;-77
2022/08/23 03:47:19;;;;;;;36.85;35.05;;;22.90;79.10;;;;;;5052774;28;20418;-77
2022/08/23 03:49:45;;;;;;;37.15;35.15;;;22.90;79.00;;;;;;5033416;28;20041;-77
2022/08/23 03:52:12;;;;;;;38.67;36.70;;;22.90;78.80;;;;;;5033312;28;20402;-77
2022/08/23 03:54:38;;;;;;;40.92;38.83;;;23.00;78.70;;;;;;5050143;28;20029;-77
2022/08/23 03:57:06;;;;;;;40.70;38.70;;;23.00;78.50;;;;;;5033582;28;20032;-77
2022/08/23 03:59:32;;;;;;;35.80;34.03;;;23.00;78.40;;;;;;5049732;28;20032;-77
2022/08/23 04:01:58;;;;;;;34.28;32.47;;;23.00;78.50;;;;;;5032929;28;20049;-77
2022/08/23 04:04:24;;;;;;;34.13;32.42;;;23.10;78.10;;;;;;5049768;28;20037;-77
2022/08/23 04:06:50;;;;;;;33.42;31.77;;;23.10;78.00;;;;;;5050160;28;20548;-77
2022/08/23 04:09:17;;;;;;;34.78;33.08;;;23.10;77.80;;;;;;5051100;28;20036;-77
2022/08/23 04:11:43;;;;;;;35.15;33.15;;;23.10;77.70;;;;;;5051226;28;20385;-77
2022/08/23 04:14:09;;;;;;;35.92;34.03;;;23.20;77.70;;;;;;5032794;28;20033;-77
2022/08/23 04:16:39;;;;;;;33.00;31.42;;;23.20;77.70;;;;;;5049160;28;20113;-77
2022/08/23 04:19:06;;;;;;;34.00;32.30;;;23.20;77.70;;;;;;5049240;28;20513;-77
2022/08/23 04:21:32;;;;;;;34.33;32.67;;;23.20;77.70;;;;;;5049931;28;20055;-77
2022/08/23 04:23:58;;;;;;;34.33;32.50;;;23.10;77.80;;;;;;5032968;28;20045;-77
2022/08/23 04:26:24;;;;;;;33.65;31.95;;;23.20;77.90;;;;;;5049655;28;20021;-77
2022/08/23 04:28:50;;;;;;;34.92;33.03;;;23.20;77.80;;;;;;5049648;28;20033;-77
2022/08/23 04:31:17;;;;;;;34.13;32.42;;;23.10;78.90;;;;;;5048910;28;20048;-77
2022/08/23 04:33:43;;;;;;;34.22;32.53;;;23.10;78.10;;;;;;5032996;28;20052;-77
2022/08/23 04:36:09;;;;;;;34.78;32.97;;;23.10;78.00;;;;;;5049588;28;20033;-77
2022/08/23 04:38:35;;;;;;;34.38;32.63;;;23.10;77.80;;;;;;5049271;28;20421;-77
2022/08/23 04:43:46;;;;;;;33.83;31.85;;;23.10;78.10;;;;;;5050180;28;20032;-77
2022/08/23 04:46:15;;;;;;;34.25;32.55;;;23.10;78.00;;;;;;5036076;28;20028;-77
2022/08/23 04:48:42;;;;;;;34.83;33.05;;;23.10;77.80;;;;;;5031413;28;20215;-77
2022/08/23 04:51:08;;;;;;;35.55;33.83;;;23.10;77.90;;;;;;5034901;28;20021;-77
2022/08/23 04:53:34;;;;;;;41.33;39.13;;;23.20;78.10;;;;;;5036887;28;20460;-77
2022/08/23 04:56:01;;;;;;;39.95;37.72;;;23.10;77.80;;;;;;5036947;28;20025;-77
2022/08/23 04:58:31;;;;;;;40.67;38.58;;;23.10;78.20;;;;;;5020228;28;20052;-77
2022/08/23 05:00:58;;;;;;;39.78;37.78;;;23.10;78.40;;;;;;5036378;28;20021;-77
2022/08/23 05:03:25;;;;;;;34.47;32.78;;;23.10;78.40;;;;;;5053058;28;20029;-77
2022/08/23 05:05:52;;;;;;;39.17;37.08;;;23.10;78.40;;;;;;5053246;28;20024;-77
2022/08/23 05:08:18;;;;;;;34.95;33.05;;;23.10;78.20;;;;;;5053440;28;20405;-77
2022/08/23 05:10:44;;;;;;;35.35;33.50;;;23.00;78.40;;;;;;5053314;28;20033;-77
2022/08/23 05:13:10;;;;;;;37.50;35.55;;;23.00;78.80;;;;;;5052743;28;20033;-77
2022/08/23 05:15:36;;;;;;;38.90;36.90;;;22.80;80.10;;;;;;5053956;28;20025;-77
2022/08/23 05:18:02;;;;;;;37.13;35.25;;;22.60;81.00;;;;;;5052835;28;20024;-77
2022/08/23 05:20:30;;;;;;;34.47;32.70;;;22.70;80.40;;;;;;5052945;28;20040;-77
2022/08/23 05:22:56;;;;;;;33.80;31.98;;;22.80;79.90;;;;;;5053127;28;20385;-77
2022/08/23 05:25:22;;;;;;;38.92;37.03;;;22.80;79.50;;;;;;5052966;28;20028;-77
2022/08/23 05:27:48;;;;;;;42.60;40.50;;;22.90;79.40;;;;;;5052621;28;20041;-77
2022/08/23 05:30:14;;;;;;;41.55;39.42;;;22.90;79.10;;;;;;5052282;28;20029;-77
2022/08/23 05:32:40;;;;;;;40.70;38.63;;;22.90;78.90;;;;;;5036018;28;20390;-77
2022/08/23 05:35:07;;;;;;;40.72;38.65;;;23.00;78.80;;;;;;5052321;28;20033;-77
2022/08/23 05:37:33;;;;;;;41.97;39.88;;;23.00;78.70;;;;;;5054154;28;20032;-77
2022/08/23 05:39:59;;;;;;;39.38;37.42;;;23.00;78.80;;;;;;5053567;28;20021;-77
2022/08/23 05:42:26;;;;;;;40.92;38.75;;;23.00;78.80;;;;;;5053592;28;20025;-77
2022/08/23 05:44:52;;;;;;;41.95;39.80;;;22.90;78.70;;;;;;5042522;28;20389;-77
2022/08/23 05:47:18;;;;;;;37.83;35.92;;;22.90;78.90;;;;;;5038892;28;20045;-77
2022/08/23 05:49:44;;;;;;;39.53;37.38;;;22.90;79.10;;;;;;5019209;28;20043;-77
2022/08/23 05:52:11;;;;;;;37.17;35.25;;;22.70;79.50;;;;;;5035880;28;20032;-77
2022/08/23 05:54:38;;;;;;;38.83;36.90;;;22.80;79.40;;;;;;5052341;28;20029;-77
2022/08/23 05:57:04;;;;;;;35.58;33.78;;;22.60;79.60;;;;;;5035534;28;20377;-77
2022/08/23 05:59:30;;;;;;;36.08;34.28;;;22.60;79.70;;;;;;5035713;28;20037;-77
2022/08/23 06:01:56;;;;;;;35.75;34.00;;;22.50;79.90;;;;;;5017282;28;20033;-77
2022/08/23 06:04:22;;;;;;;33.85;32.15;;;22.50;80.20;;;;;;5035356;28;20044;-77
2022/08/23 06:06:48;;;;;;;35.05;33.42;;;22.50;79.80;;;;;;5052522;28;20041;-77
2022/08/23 06:09:16;;;;;;;33.25;31.65;;;22.60;79.50;;;;;;5035096;28;20498;-77
2022/08/23 06:11:43;;;;;;;32.00;30.50;;;22.60;79.50;;;;;;5051806;28;20037;-77
2022/08/23 06:14:09;;;;;;;32.55;31.02;;;22.60;79.30;;;;;;5052400;28;20021;-77
2022/08/23 06:16:40;;;;;;;32.70;31.13;;;22.60;79.40;;;;;;5050953;28;20040;-77
2022/08/23 06:19:07;;;;;;;32.42;30.85;;;22.60;79.30;;;;;;5051898;28;20021;-77
2022/08/23 06:21:33;;;;;;;34.30;32.63;;;22.70;79.20;;;;;;5051903;28;20037;-77
2022/08/23 06:24:00;;;;;;;31.33;29.83;;;22.60;79.50;;;;;;5051879;28;20458;-77
2022/08/23 06:26:30;;;;;;;31.35;29.88;;;22.60;79.30;;;;;;5051423;28;20470;-77
2022/08/23 06:28:57;;;;;;;30.90;29.43;;;22.60;79.10;;;;;;5035404;28;20048;-77
2022/08/23 06:34:09;;;;;;;30.60;29.15;;;22.70;78.70;;;;;;5056943;28;20040;-77
2022/08/23 06:36:36;;;;;;;31.20;29.75;;;22.70;78.70;;;;;;5051323;28;20029;-77
2022/08/23 06:39:04;;;;;;;33.80;32.17;;;22.70;78.60;;;;;;5052336;28;20033;-77
2022/08/23 06:41:30;;;;;;;37.58;35.78;;;22.80;78.40;;;;;;5051509;28;20025;-77
2022/08/23 06:43:56;;;;;;;36.00;34.30;;;22.80;78.20;;;;;;5049020;28;20025;-77
2022/08/23 06:46:24;;;;;;;36.40;34.70;;;22.90;78.20;;;;;;5054900;28;20033;-77
2022/08/23 06:48:50;;;;;;;35.35;33.65;;;22.90;77.90;;;;;;5035302;28;20036;-77
2022/08/23 06:51:29;;;;;;;37.47;35.72;;;23.00;77.90;;;;;;5034237;28;20045;-78
2022/08/23 06:53:57;;;;;;;35.42;33.75;;;23.00;77.80;;;;;;5050960;28;20032;-77
2022/08/23 06:56:23;;;;;;;34.65;33.03;;;23.00;77.60;;;;;;5051347;28;20020;-77
2022/08/23 06:58:50;;;;;;;37.78;36.00;;;23.00;77.70;;;;;;5034437;28;20033;-77
2022/08/23 07:01:31;;;;;;;37.50;35.67;;;23.00;77.70;;;;;;5033524;28;20044;-77
2022/08/23 07:03:58;;;;;;;35.60;33.92;;;23.00;77.70;;;;;;5052329;28;20033;-77
2022/08/23 07:06:24;;;;;;;37.70;35.92;;;23.10;77.80;;;;;;5050750;28;20024;-77
2022/08/23 07:08:51;;;;;;;41.65;39.67;;;23.10;77.60;;;;;;5050873;28;20025;-77
2022/08/23 07:11:17;;;;;;;43.00;40.97;;;23.20;77.40;;;;;;5034022;28;20043;-77
2022/08/23 07:13:43;;;;;;;44.63;42.47;;;23.20;77.50;;;;;;5050449;28;20029;-77
2022/08/23 07:16:10;;;;;;;40.53;38.53;;;23.20;77.50;;;;;;5050395;28;20394;-78
2022/08/23 07:18:36;;;;;;;41.33;39.40;;;23.20;77.40;;;;;;5034052;28;20040;-77
2022/08/23 07:21:03;;;;;;;47.72;45.45;;;23.10;77.70;;;;;;5033680;28;20485;-77
2022/08/23 07:23:32;;;;;;;43.15;41.00;;;23.20;77.60;;;;;;5050457;28;20029;-78
2022/08/23 07:25:59;;;;;;;45.45;43.25;;;23.30;77.00;;;;;;5050711;28;20025;-77
2022/08/23 07:28:26;;;;;;;45.83;43.65;;;23.40;77.00;;;;;;5050460;28;20409;-77
2022/08/23 07:30:54;;;;;;;45.65;43.47;;;23.40;76.80;;;;;;5049985;28;20028;-77
2022/08/23 07:33:20;;;;;;;40.55;38.60;;;23.40;76.50;;;;;;5050759;28;20029;-77
2022/08/23 07:35:50;;;;;;;40.97;39.03;;;23.50;76.30;;;;;;5033164;28;20037;-78
2022/08/23 07:38:16;;;;;;;43.10;41.08;;;23.60;75.90;;;;;;5033431;28;20041;-78
2022/08/23 07:40:43;;;;;;;42.13;40.17;;;23.60;75.80;;;;;;5029844;28;20510;-78
2022/08/23 07:43:10;;;;;;;45.03;42.88;;;23.70;75.50;;;;;;5013979;28;20052;-78
2022/08/23 07:45:37;;;;;;;42.42;40.35;;;23.70;75.20;;;;;;5016575;28;20040;-78
2022/08/23 07:48:04;;;;;;;39.28;37.38;;;23.70;75.20;;;;;;5033405;28;20056;-78
2022/08/23 07:50:30;;;;;;;44.78;42.67;;;23.80;75.20;;;;;;5050035;28;20040;-78
2022/08/23 07:52:57;;;;;;;42.88;40.90;;;23.80;74.90;;;;;;5049928;28;20049;-78
2022/08/23 07:55:23;;;;;;;45.30;43.10;;;23.80;74.80;;;;;;5050198;28;20358;-78
2022/08/23 07:57:49;;;;;;;43.55;41.50;;;23.80;75.70;;;;;;5050321;28;20040;-78
2022/08/23 08:00:16;;;;;;;42.50;40.50;;;23.70;75.00;;;;;;5032485;28;20044;-78
2022/08/23 08:02:42;;;;;;;42.78;40.78;;;23.80;74.90;;;;;;5033733;28;20422;-78
2022/08/23 08:05:08;;;;;;;46.17;43.88;;;23.80;75.10;;;;;;5051439;28;20029;-78
2022/08/23 08:07:34;;;;;;;50.03;47.67;;;23.80;75.10;;;;;;5050756;28;20040;-78
2022/08/23 08:10:01;;;;;;;50.30;47.92;;;23.80;75.00;;;;;;5033105;28;20059;-78
2022/08/23 08:12:27;;;;;;;54.00;51.47;;;23.90;74.90;;;;;;5050017;28;20044;-78
2022/08/23 08:14:54;;;;;;;49.75;47.45;;;23.90;74.70;;;;;;5050039;28;20032;-78
2022/08/23 08:17:20;;;;;;;52.03;49.58;;;23.90;74.50;;;;;;5049004;28;20029;-78
2022/08/23 08:19:46;;;;;;;55.67;53.00;;;24.00;74.40;;;;;;5033047;28;20052;-78
2022/08/23 08:22:12;;;;;;;51.33;48.90;;;24.00;74.30;;;;;;5049372;28;20021;-78
2022/08/23 08:24:38;;;;;;;58.38;55.63;;;24.00;74.00;;;;;;5049466;28;20029;-78
2022/08/23 08:27:05;;;;;;;57.67;54.95;;;24.10;73.90;;;;;;5049263;28;20040;-78
2022/08/23 08:29:31;;;;;;;59.63;56.80;;;24.10;73.60;;;;;;5049831;28;20036;-78
2022/08/23 08:31:57;;;;;;;58.85;56.08;;;24.20;73.30;;;;;;5032282;28;20041;-78
2022/08/23 08:34:23;;;;;;;60.17;57.33;;;24.20;73.20;;;;;;5032917;28;20033;-78
2022/08/23 08:36:52;;;;;;;60.78;57.90;;;24.10;73.20;;;;;;5031877;28;20097;-78
2022/08/23 08:39:23;;;;;;;61.45;58.58;;;24.20;72.80;;;;;;5033626;28;20036;-78
2022/08/23 08:42:07;;;;;;;56.75;54.08;;;24.20;72.90;;;;;;5032787;28;20036;-78
2022/08/23 08:44:52;;;;;;;59.85;57.05;;;24.10;72.90;;;;;;5049794;28;20187;-78
2022/08/23 08:47:25;;;;;;;54.85;52.28;;;24.10;72.40;;;;;;5052897;28;20498;-78
2022/08/23 08:50:15;;;;;;;56.20;53.55;;;24.10;72.40;;;;;;5033195;28;20485;-78
2022/08/23 08:52:50;;;;;;;48.80;46.50;;;24.10;72.90;;;;;;5049431;28;20033;-78
2022/08/23 08:55:31;;;;;;;45.63;43.50;;;24.10;74.20;;;;;;5034084;28;20032;-77
2022/08/23 08:57:57;;;;;;;;;;;24.10;74.60;;;;;;5017437;28;20048;-77
2022/08/23 09:00:29;;;;;;;43.70;41.60;;;24.10;74.40;;;;;;5049075;28;19924;-78
2022/08/23 09:02:55;;;;;;;51.85;49.38;;;24.10;74.40;;;;;;5032713;28;20033;-78
2022/08/23 09:05:26;;;;;;;51.55;49.05;;;24.00;74.00;;;;;;5049074;28;20032;-78
2022/08/23 09:08:11;;;;;;;54.58;51.97;;;24.10;73.10;;;;;;5049151;28;20481;-78
2022/08/23 09:10:55;;;;;;;56.15;53.47;;;24.20;74.00;;;;;;5049347;28;20044;-78
2022/08/23 09:13:30;;;;;;;58.95;56.05;;;24.20;74.00;;;;;;5032938;28;20037;-78
2022/08/23 09:16:21;;;;;;;62.40;59.30;;;24.40;73.10;;;;;;5048937;28;20029;-78
2022/08/23 09:18:47;;;;;;;;;;;24.80;72.10;;;;;;5049485;28;20044;-78
2022/08/23 09:21:13;;;;;;;79.78;75.82;;;24.90;71.70;;;;;;5049358;28;19913;-78
2022/08/23 09:23:47;;;;;;;76.85;72.90;;;25.00;70.60;;;;;;5049234;28;20029;-78
2022/08/23 09:26:23;;;;;;;76.20;72.35;;;25.00;69.90;;;;;;5032531;28;20043;-79
2022/08/23 09:28:55;;;;;;;71.10;67.45;;;25.00;69.20;;;;;;5049209;28;20041;-78
2022/08/23 09:31:45;;;;;;;71.18;67.50;;;25.10;69.20;;;;;;5032118;28;20033;-78
2022/08/23 09:34:41;;;;;;;72.00;68.32;;;25.00;69.40;;;;;;5049028;28;20029;-78
2022/08/23 09:37:10;;;;;;;55.38;52.40;;;25.10;69.20;;;;;;5050685;28;20049;-79
2022/08/23 09:39:38;;;;;;;65.05;61.65;;;24.90;70.40;;;;;;5052632;28;20041;-78
2022/08/23 09:42:08;;;;;;;59.45;56.42;;;24.70;70.50;;;;;;5052633;28;20029;-78
2022/08/23 09:44:39;;;;;;;58.50;55.60;;;24.60;71.70;;;;;;5044918;28;20048;-78
2022/08/23 09:47:05;;;;;;;51.88;49.33;;;24.40;73.30;;;;;;5039122;28;20045;-78
2022/08/23 09:49:32;;;;;;;48.17;45.75;;;24.10;74.80;;;;;;5051989;28;20375;-78
2022/08/23 09:51:59;;;;;;;45.05;42.85;;;24.00;75.40;;;;;;5019142;28;20470;-78
2022/08/23 09:54:33;;;;;;;45.30;43.00;;;23.80;76.00;;;;;;5052358;28;20032;-78
2022/08/23 09:57:01;;;;;;;39.75;37.83;;;23.60;78.00;;;;;;5036096;28;20025;-78
2022/08/23 09:59:36;;;;;;;41.90;39.88;;;23.50;78.90;;;;;;5019347;28;20033;-78
2022/08/23 10:02:03;;;;;;;42.90;40.83;;;23.50;78.50;;;;;;5051356;28;20044;-78
2022/08/23 10:04:44;;;;;;;51.97;49.38;;;23.70;78.50;;;;;;5035568;28;20037;-78
2022/08/23 10:07:40;;;;;;;52.38;49.88;;;23.90;77.10;;;;;;5051904;28;20095;-78
2022/08/23 10:10:30;;;;;;;53.50;50.95;;;23.90;77.30;;;;;;5035492;28;20075;-78
2022/08/23 10:12:57;;;;;;;54.30;51.78;;;23.90;76.70;;;;;;5051888;28;20029;-78
2022/08/23 10:16:05;;;;;;;45.83;43.67;;;23.80;77.10;;;;;;5035036;28;20484;-78
2022/08/23 10:18:47;;;;;;;46.53;44.35;;;24.00;76.80;;;;;;5051002;28;20040;-78
2022/08/23 10:21:49;;;;;;;52.65;50.00;;;24.20;74.20;;;;;;5051826;28;20029;-78
2022/08/23 10:24:35;;;;;;;53.70;51.08;;;24.40;75.20;;;;;;5050564;28;20029;-78
2022/08/23 10:30:13;;;;;;;64.85;61.50;;;24.80;73.70;;;;;;5054475;28;20052;-78
2022/08/23 10:32:46;;;;;;;57.90;54.90;;;25.00;72.80;;;;;;5048244;28;20542;-78
2022/08/23 10:35:28;;;;;;;63.22;60.17;;;25.10;72.20;;;;;;5046651;28;20064;-78
2022/08/23 10:38:07;;;;;;;56.95;54.13;;;25.20;72.10;;;;;;5013961;28;20521;-78
2022/08/23 10:40:38;;;;;;;54.88;52.20;;;25.20;72.20;;;;;;5049921;28;20044;-78
2022/08/23 10:43:14;;;;;;;53.92;51.22;;;25.20;72.20;;;;;;5034199;28;20535;-78
2022/08/23 10:45:42;;;;;;;60.45;57.45;;;25.20;72.70;;;;;;5014443;28;20625;-78
2022/08/23 10:48:28;;;;;;;66.05;62.67;;;25.10;73.40;;;;;;5032245;28;20041;-78
2022/08/23 10:51:10;;;;;;;57.67;54.67;;;25.20;72.90;;;;;;5033445;28;20040;-78
2022/08/23 10:53:45;;;;;;;63.50;60.15;;;25.30;72.60;;;;;;5050208;28;20036;-78
2022/08/23 10:56:20;;;;;;;70.70;67.15;;;25.40;72.70;;;;;;5049998;28;20470;-78
2022/08/23 10:58:57;;;;;;;76.20;72.35;;;25.50;71.70;;;;;;5061516;28;20048;-78
2022/08/23 11:01:38;;;;;;;61.67;58.65;;;25.50;71.00;;;;;;5050384;28;20501;-78
2022/08/23 11:04:07;;;;;;;78.68;74.35;;;25.60;69.40;;;;;;5067599;28;20052;-78
2022/08/23 11:06:36;;;;;;;54.58;51.92;;;25.60;69.90;;;;;;5034228;28;20048;-78
2022/08/23 11:09:18;;;;;;;54.20;51.60;;;25.80;68.70;;;;;;5067354;28;20075;-79
2022/08/23 11:11:48;;;;;;;53.65;51.10;;;25.80;68.50;;;;;;5051555;28;20037;-78
2022/08/23 11:14:35;;;;;;;55.92;53.15;;;26.10;68.60;;;;;;5050889;28;20037;-78
2022/08/23 11:17:41;;;;;;;63.78;60.65;;;26.50;66.60;;;;;;5050036;28;20021;-78
2022/08/23 11:20:11;;;;;;;56.35;53.60;;;26.70;65.10;;;;;;5032363;28;20517;-78
2022/08/23 11:22:55;;;;;;;59.78;56.88;;;26.90;65.40;;;;;;5048882;28;20408;-78
2022/08/23 11:25:21;;;;;;;68.75;65.35;;;27.10;65.10;;;;;;5049398;28;20041;-79
2022/08/23 11:27:47;;;;;;;70.43;67.05;;;27.10;63.10;;;;;;5049437;28;20049;-79
2022/08/23 11:30:32;;;;;;;66.88;63.67;;;27.00;63.30;;;;;;5031476;28;20037;-79
2022/08/23 11:33:07;;;;;;;69.32;66.00;;;27.10;62.80;;;;;;5049486;28;20025;-79
2022/08/23 11:35:48;;;;;;;71.22;67.72;;;27.20;62.70;;;;;;5048600;28;20478;-79
2022/08/23 11:38:16;;;;;;;50.13;47.67;;;27.30;62.20;;;;;;5049488;28;20040;-79
2022/08/23 11:40:54;;;;;;;56.17;53.40;;;27.30;61.40;;;;;;5045624;28;20044;-79
2022/08/23 11:43:23;;;;;;;58.67;55.65;;;27.40;62.20;;;;;;5013799;28;20041;-79
2022/08/23 11:45:50;;;;;;;42.47;40.40;;;27.50;61.40;;;;;;5048097;28;20028;-79
2022/08/23 11:48:18;;;;;;;47.80;45.47;;;27.50;59.60;;;;;;5032203;28;20056;-79
2022/08/23 11:50:51;;;;;;;49.00;46.65;;;27.40;61.30;;;;;;5031974;28;20331;-79
2022/08/23 11:53:46;;;;;;;57.75;54.90;;;27.60;60.90;;;;;;5049501;28;20033;-79
2022/08/23 11:56:28;;;;;;;45.08;42.88;;;27.80;59.80;;;;;;5050195;28;20291;-79
2022/08/23 11:59:33;;;;;;;46.28;44.05;;;27.90;59.50;;;;;;5049969;28;20029;-79
2022/08/23 12:02:30;;;;;;;43.30;41.10;;;28.00;59.10;;;;;;5050891;28;20600;-79
2022/08/23 12:04:59;;;;;;;40.03;38.03;;;28.00;58.90;;;;;;5051411;28;20036;-79
2022/08/23 12:07:53;;;;;;;42.78;40.67;;;28.10;58.30;;;;;;5050183;28;20427;-79
2022/08/23 12:10:40;;;;;;;41.28;39.22;;;28.00;59.10;;;;;;5050029;28;20402;-79
2022/08/23 12:13:21;;;;;;;39.10;37.10;;;27.90;59.90;;;;;;5034084;28;20047;-79
2022/08/23 12:16:06;;;;;;;34.22;32.47;;;27.80;59.80;;;;;;5049565;28;20029;-79
2022/08/23 12:18:34;;;;;;;33.03;31.42;;;27.60;59.70;;;;;;5049910;28;20041;-79
2022/08/23 12:21:01;;;;;;;36.75;34.95;;;27.40;60.10;;;;;;5033017;28;20044;-79
2022/08/23 12:23:28;;;;;;;36.17;34.42;;;27.40;61.00;;;;;;5049874;28;20389;-79
2022/08/23 12:26:04;;;;;;;31.85;30.33;;;27.40;60.50;;;;;;5049836;28;20029;-79
2022/08/23 12:28:38;;;;;;;34.75;33.00;;;27.20;60.40;;;;;;5049264;28;20029;-79
2022/08/23 12:31:18;;;;;;;33.17;31.50;;;27.10;60.70;;;;;;5032048;28;20022;-79
2022/08/23 12:34:24;;;;;;;34.15;32.45;;;26.90;61.20;;;;;;5049727;28;20033;-79
2022/08/23 12:36:53;;;;;;;33.58;31.98;;;26.70;61.80;;;;;;5049428;28;20041;-79
2022/08/23 12:39:19;;;;;;;37.97;36.17;;;26.80;61.70;;;;;;5050705;28;20434;-79
2022/08/23 12:42:01;;;;;;;41.70;39.70;;;26.80;61.40;;;;;;5050461;28;20029;-79
2022/08/23 12:44:28;;;;;;;44.45;42.35;;;26.70;61.90;;;;;;5043692;28;20028;-79
2022/08/23 12:46:54;;;;;;;43.17;41.10;;;26.70;61.30;;;;;;5053422;28;20410;-79
2022/08/23 12:49:25;;;;;;;39.00;37.10;;;26.60;61.30;;;;;;5032963;28;20037;-79
2022/08/23 12:51:52;;;;;;;38.20;36.40;;;26.80;61.50;;;;;;5049738;28;20390;-79
2022/08/23 12:54:21;;;;;;;42.08;40.08;;;26.90;60.30;;;;;;5033195;28;20029;-79
2022/08/23 12:56:48;;;;;;;41.22;39.20;;;26.80;61.30;;;;;;5049210;28;20501;-79
2022/08/23 12:59:35;;;;;;;33.20;31.60;;;26.90;61.10;;;;;;5016291;28;20041;-79